Time,TemperatureF,DewpointF,PressureIn,WindDirection,WindDirectionDegrees,WindSpeedMPH,WindSpeedGustMPH,Humidity,HourlyPrecipIn,Conditions,Clouds,dailyrainin,SoftwareType,DateUTC
2013-01-21 00:01:00,17.2,2.2,30.41,SSW,197,6.0,7.0,51,0.00,,---,0.00,VWS V12.07,2013-01-21 07:01:00,
2013-01-21 00:16:00,17.5,2.0,30.39,South,186,4.0,9.0,50,0.00,,---,0.00,VWS V12.07,2013-01-21 07:16:00,
2013-01-21 00:31:00,16.0,1.9,30.41,SSW,192,2.0,4.0,53,0.00,,---,0.00,VWS V12.07,2013-01-21 07:31:00,
2013-01-21 00:46:00,16.1,2.0,30.41,SSW,200,0.0,4.0,53,0.00,,---,0.00,VWS V12.07,2013-01-21 07:46:00,
2013-01-21 01:01:00,16.1,1.6,30.41,SSW,200,0.0,0.0,52,0.00,,---,0.00,VWS V12.07,2013-01-21 08:01:00,
2013-01-21 01:16:00,14.3,0.7,30.41,SSW,200,0.0,0.0,54,0.00,,---,0.00,VWS V12.07,2013-01-21 08:16:00,
2013-01-21 01:31:00,12.2,0.3,30.42,SSW,200,0.0,0.0,58,0.00,,---,0.00,VWS V12.07,2013-01-21 08:31:00,
2013-01-21 01:46:00,11.3,0.5,30.44,SSW,200,3.0,4.0,61,0.00,,---,0.00,VWS V12.07,2013-01-21 08:46:00,
2013-01-21 02:01:00,11.2,0.4,30.44,SSW,200,2.0,3.0,61,0.00,,---,0.00,VWS V12.07,2013-01-21 09:01:00,
2013-01-21 02:16:00,11.0,0.2,30.43,SSW,199,4.0,4.0,61,0.00,,---,0.00,VWS V12.07,2013-01-21 09:16:00,
2013-01-21 02:31:00,12.1,0.5,30.43,SSW,200,3.0,3.0,59,0.00,,---,0.00,VWS V12.07,2013-01-21 09:31:00,
2013-01-21 02:46:00,11.6,0.1,30.43,SSW,200,3.0,4.0,59,0.00,,---,0.00,VWS V12.07,2013-01-21 09:46:00,
2013-01-21 03:01:00,9.9,-0.9,30.45,SSW,200,3.0,4.0,61,0.00,,---,0.00,VWS V12.07,2013-01-21 10:01:00,
2013-01-21 03:16:00,9.9,-0.5,30.45,SSW,200,3.0,4.0,62,0.00,,---,0.00,VWS V12.07,2013-01-21 10:16:00,
2013-01-21 03:31:00,9.5,-0.2,30.46,SSW,200,4.0,4.0,64,0.00,,---,0.00,VWS V12.07,2013-01-21 10:31:00,
2013-01-21 03:46:00,9.3,-0.4,30.46,SSW,200,4.0,5.0,64,0.00,,---,0.00,VWS V12.07,2013-01-21 10:46:00,
2013-01-21 04:01:00,10.4,0.0,30.44,SSW,200,4.0,4.0,62,0.00,,---,0.00,VWS V12.07,2013-01-21 11:01:00,
2013-01-21 04:16:00,12.2,1.0,30.44,SSW,201,4.0,5.0,60,0.00,,---,0.00,VWS V12.07,2013-01-21 11:16:00,
2013-01-21 04:31:00,12.3,0.3,30.42,SSW,200,0.0,2.0,58,0.00,,---,0.00,VWS V12.07,2013-01-21 11:31:00,
2013-01-21 04:46:00,12.9,0.9,30.42,SSW,201,0.0,3.0,58,0.00,,---,0.00,VWS V12.07,2013-01-21 11:46:00,
2013-01-21 05:01:00,12.5,0.5,30.42,South,184,2.0,3.0,58,0.00,,---,0.00,VWS V12.07,2013-01-21 12:01:00,
2013-01-21 05:16:00,10.9,-0.6,30.55,South,184,4.0,5.0,59,0.00,,---,0.00,VWS V12.07,2013-01-21 12:16:00,
2013-01-21 05:31:00,10.3,-0.1,30.56,South,184,4.0,4.0,62,0.00,,---,0.00,VWS V12.07,2013-01-21 12:31:00,
2013-01-21 05:46:00,9.8,-0.3,30.57,South,184,4.0,4.0,63,0.00,,---,0.00,VWS V12.07,2013-01-21 12:46:00,
2013-01-21 06:01:00,9.6,0.2,30.58,South,185,4.0,4.0,65,0.00,,---,0.00,VWS V12.07,2013-01-21 13:01:00,
2013-01-21 06:16:00,12.5,1.6,30.56,South,179,0.0,5.0,61,0.00,,---,0.00,VWS V12.07,2013-01-21 13:16:00,
2013-01-21 06:31:00,12.2,1.3,30.56,South,179,2.0,2.0,61,0.00,,---,0.00,VWS V12.07,2013-01-21 13:31:00,
2013-01-21 06:46:00,12.3,1.4,30.57,SSW,192,3.0,7.0,61,0.00,,---,0.00,VWS V12.07,2013-01-21 13:46:00,
2013-01-21 07:01:00,12.0,1.5,30.57,South,184,3.0,6.0,62,0.00,,---,0.00,VWS V12.07,2013-01-21 14:01:00,
2013-01-21 07:16:00,13.5,1.9,30.58,South,182,6.0,6.0,59,0.00,,---,0.00,VWS V12.07,2013-01-21 14:16:00,
2013-01-21 07:31:00,11.5,1.0,30.60,South,182,2.0,3.0,62,0.00,,---,0.00,VWS V12.07,2013-01-21 14:31:00,
2013-01-21 07:46:00,11.9,2.4,30.61,South,182,2.0,4.0,65,0.00,,---,0.00,VWS V12.07,2013-01-21 14:46:00,
2013-01-21 08:01:00,15.4,3.3,30.58,South,176,4.0,5.0,58,0.00,,---,0.00,VWS V12.07,2013-01-21 15:01:00,
2013-01-21 08:16:00,17.7,4.7,30.59,South,175,0.0,3.0,56,0.00,,---,0.00,VWS V12.07,2013-01-21 15:16:00,
2013-01-21 08:31:00,21.8,6.0,30.56,South,175,0.0,0.0,50,0.00,,---,0.00,VWS V12.07,2013-01-21 15:31:00,
2013-01-21 08:46:00,25.3,7.4,30.53,South,172,0.0,0.0,46,0.00,,---,0.00,VWS V12.07,2013-01-21 15:46:00,
2013-01-21 09:01:00,27.1,7.1,30.51,SSE,157,0.0,0.0,42,0.00,,---,0.00,VWS V12.07,2013-01-21 16:01:00,
2013-01-21 09:16:00,28.9,7.6,30.49,SE,142,3.0,4.0,40,0.00,,---,0.00,VWS V12.07,2013-01-21 16:16:00,
2013-01-21 09:31:00,29.8,7.9,30.51,SE,140,3.0,4.0,39,0.00,,---,0.00,VWS V12.07,2013-01-21 16:31:00,
2013-01-21 09:46:00,32.6,9.2,30.49,SSE,152,0.0,4.0,37,0.00,,---,0.00,VWS V12.07,2013-01-21 16:46:00,
2013-01-21 10:01:00,34.9,9.4,30.46,SE,142,0.0,0.0,34,0.00,,---,0.00,VWS V12.07,2013-01-21 17:01:00,
2013-01-21 10:16:00,36.4,10.1,30.44,SE,142,0.0,0.0,33,0.00,,---,0.00,VWS V12.07,2013-01-21 17:16:00,
2013-01-21 10:31:00,37.0,10.6,30.43,SE,131,0.0,0.0,33,0.00,,---,0.00,VWS V12.07,2013-01-21 17:31:00,
2013-01-21 10:46:00,37.2,9.4,30.43,NNE,14,4.0,7.0,31,0.00,,---,0.00,VWS V12.07,2013-01-21 17:46:00,
2013-01-21 11:01:00,36.0,9.0,30.46,North,9,3.0,4.0,32,0.00,,---,0.00,VWS V12.07,2013-01-21 18:01:00,
2013-01-21 11:16:00,36.2,7.8,30.46,NNE,21,3.0,7.0,30,0.00,,---,0.00,VWS V12.07,2013-01-21 18:16:00,
2013-01-21 11:31:00,36.5,10.8,30.44,NNE,13,4.0,7.0,34,0.00,,---,0.00,VWS V12.07,2013-01-21 18:31:00,
2013-01-21 11:46:00,36.1,9.8,30.45,North,360,5.0,8.0,33,0.00,,---,0.00,VWS V12.07,2013-01-21 18:46:00,
2013-01-21 12:01:00,36.4,10.7,30.43,NNE,13,6.0,9.0,34,0.00,,---,0.00,VWS V12.07,2013-01-21 19:01:00,
2013-01-21 12:16:00,36.7,11.6,30.44,NNW,346,0.0,9.0,35,0.00,,---,0.00,VWS V12.07,2013-01-21 19:16:00,
2013-01-21 12:31:00,37.9,10.7,30.42,North,11,0.0,0.0,32,0.00,,---,0.00,VWS V12.07,2013-01-21 19:31:00,
2013-01-21 12:46:00,38.5,6.6,30.42,NNE,12,0.0,4.0,26,0.00,,---,0.00,VWS V12.07,2013-01-21 19:46:00,
2013-01-21 13:01:00,40.0,10.3,30.39,NNE,12,0.0,0.0,29,0.00,,---,0.00,VWS V12.07,2013-01-21 20:01:00,
2013-01-21 13:16:00,43.9,11.2,30.40,North,11,0.0,0.0,26,0.00,,---,0.00,VWS V12.07,2013-01-21 20:16:00,
2013-01-21 13:31:00,42.4,10.8,30.38,NNE,26,2.0,3.0,27,0.00,,---,0.00,VWS V12.07,2013-01-21 20:31:00,
2013-01-21 13:46:00,41.6,11.7,30.40,NE,49,0.0,5.0,29,0.00,,---,0.00,VWS V12.07,2013-01-21 20:46:00,
2013-01-21 14:01:00,42.2,12.2,30.38,East,90,2.0,5.0,29,0.00,,---,0.00,VWS V12.07,2013-01-21 21:01:00,
2013-01-21 14:16:00,42.2,13.8,30.38,East,85,0.0,5.0,31,0.00,,---,0.00,VWS V12.07,2013-01-21 21:16:00,
2013-01-21 14:31:00,41.9,14.2,30.39,North,360,7.0,7.0,32,0.00,,---,0.00,VWS V12.07,2013-01-21 21:31:00,
2013-01-21 14:46:00,39.5,14.1,30.41,NNE,19,4.0,11.0,35,0.00,,---,0.00,VWS V12.07,2013-01-21 21:46:00,
2013-01-21 15:01:00,38.5,11.9,30.43,NNE,13,1.0,3.0,33,0.00,,---,0.00,VWS V12.07,2013-01-21 22:01:00,
2013-01-21 15:16:00,38.3,11.0,30.43,NNW,346,6.0,10.0,32,0.00,,---,0.00,VWS V12.07,2013-01-21 22:16:00,
2013-01-21 15:31:00,38.4,12.5,30.43,North,360,2.0,4.0,34,0.00,,---,0.00,VWS V12.07,2013-01-21 22:31:00,
2013-01-21 15:46:00,37.3,10.2,30.45,North,350,3.0,8.0,32,0.00,,---,0.00,VWS V12.07,2013-01-21 22:46:00,
2013-01-21 16:01:00,36.7,8.9,30.45,NNE,14,3.0,4.0,31,0.00,,---,0.00,VWS V12.07,2013-01-21 23:01:00,
2013-01-21 16:16:00,36.6,8.8,30.42,North,350,0.0,5.0,31,0.00,,---,0.00,VWS V12.07,2013-01-21 23:16:00,
2013-01-21 16:31:00,36.8,9.0,30.42,NNW,347,1.0,1.0,31,0.00,,---,0.00,VWS V12.07,2013-01-21 23:31:00,
2013-01-21 16:46:00,36.3,8.6,30.42,NNW,347,0.0,1.0,31,0.00,,---,0.00,VWS V12.07,2013-01-21 23:46:00,
2013-01-21 17:01:00,34.7,7.9,30.44,NNW,347,0.0,0.0,32,0.00,,---,0.00,VWS V12.07,2013-01-22 00:01:00,
2013-01-21 17:16:00,31.6,8.3,30.49,NNW,347,0.0,0.0,37,0.00,,---,0.00,VWS V12.07,2013-01-22 00:16:00,
2013-01-21 17:31:00,27.4,7.9,30.53,West,263,0.0,0.0,43,0.00,,---,0.00,VWS V12.07,2013-01-22 00:31:00,
2013-01-21 17:46:00,26.9,8.4,30.55,WSW,253,0.0,3.0,45,0.00,,---,0.00,VWS V12.07,2013-01-22 00:46:00,
2013-01-21 18:01:00,27.4,8.4,30.56,SW,232,0.0,0.0,44,0.00,,---,0.00,VWS V12.07,2013-01-22 01:01:00,
2013-01-21 18:16:00,27.3,8.3,30.54,SW,215,3.0,5.0,44,0.00,,---,0.00,VWS V12.07,2013-01-22 01:16:00,
2013-01-21 18:31:00,26.4,7.9,30.54,SW,217,0.0,0.0,45,0.00,,---,0.00,VWS V12.07,2013-01-22 01:31:00,
2013-01-21 18:46:00,25.3,7.4,30.56,SW,217,0.0,0.0,46,0.00,,---,0.00,VWS V12.07,2013-01-22 01:46:00,
2013-01-21 19:01:00,24.2,7.8,30.56,SW,217,0.0,0.0,49,0.00,,---,0.00,VWS V12.07,2013-01-22 02:01:00,
2013-01-21 19:16:00,24.0,8.1,30.55,SSW,202,2.0,4.0,50,0.00,,---,0.00,VWS V12.07,2013-01-22 02:16:00,
2013-01-21 19:31:00,24.8,7.9,30.53,South,186,3.0,4.0,48,0.00,,---,0.00,VWS V12.07,2013-01-22 02:31:00,
2013-01-21 19:46:00,23.9,7.5,30.54,South,186,0.0,4.0,49,0.00,,---,0.00,VWS V12.07,2013-01-22 02:46:00,
2013-01-21 20:01:00,23.4,7.1,30.53,SE,145,1.0,1.0,49,0.00,,---,0.00,VWS V12.07,2013-01-22 03:01:00,
2013-01-21 20:16:00,24.2,6.9,30.42,SE,132,4.0,6.0,47,0.00,,---,0.00,VWS V12.07,2013-01-22 03:16:00,
2013-01-21 20:31:00,25.2,6.4,30.41,SE,132,0.0,3.0,44,0.00,,---,0.00,VWS V12.07,2013-01-22 03:31:00,
2013-01-21 20:46:00,24.1,6.8,30.42,SSE,167,6.0,8.0,47,0.00,,---,0.00,VWS V12.07,2013-01-22 03:46:00,
2013-01-21 21:01:00,22.6,5.9,30.42,SSE,165,3.0,5.0,48,0.00,,---,0.00,VWS V12.07,2013-01-22 04:01:00,
2013-01-21 21:16:00,21.7,5.5,30.37,SSE,164,0.0,5.0,49,0.00,,---,0.00,VWS V12.07,2013-01-22 04:16:00,
2013-01-21 21:31:00,20.3,4.6,30.37,SSE,165,0.0,0.0,50,0.00,,---,0.00,VWS V12.07,2013-01-22 04:31:00,
2013-01-21 21:46:00,20.7,4.6,30.37,South,176,5.0,6.0,49,0.00,,---,0.00,VWS V12.07,2013-01-22 04:46:00,
2013-01-21 22:01:00,20.8,4.7,30.38,WNW,296,0.0,0.0,49,0.00,,---,0.00,VWS V12.07,2013-01-22 05:01:00,
2013-01-21 22:16:00,21.1,4.5,30.38,SW,226,2.0,5.0,48,0.00,,---,0.00,VWS V12.07,2013-01-22 05:16:00,
2013-01-21 22:31:00,20.2,3.7,30.39,SW,226,0.0,0.0,48,0.00,,---,0.00,VWS V12.07,2013-01-22 05:31:00,
2013-01-21 22:46:00,19.3,3.3,30.39,SW,226,0.0,0.0,49,0.00,,---,0.00,VWS V12.07,2013-01-22 05:46:00,
2013-01-21 23:01:00,18.7,3.2,30.41,SSW,210,0.0,0.0,50,0.00,,---,0.00,VWS V12.07,2013-01-22 06:01:00,
2013-01-21 23:16:00,17.4,2.8,30.41,SSW,210,0.0,0.0,52,0.00,,---,0.00,VWS V12.07,2013-01-22 06:16:00,
2013-01-21 23:31:00,16.8,1.8,30.41,SSW,210,0.0,0.0,51,0.00,,---,0.00,VWS V12.07,2013-01-22 06:31:00,
2013-01-21 23:46:00,16.5,1.5,30.41,SSW,211,0.0,0.0,51,0.00,,---,0.00,VWS V12.07,2013-01-22 06:46:00,